Información del aeropuerto LEBG

Información de pista
Pista 06 Longitud 4393 ft Anchura 98 ft
Elevación 2907 ft Umbral 0 ft Rumbo 56
Pista 24 Longitud 4393 ft Anchura 98 ft
Elevación 2945 ft Umbral 0 ft Rumbo 236
Frecuencias del aeropuerto
Tipo UNIC Nombre UNIC Frecuencia 122.4 MHZ
Radioayudas del aeropuerto
Tipo NDB Nombre Burgos Frecuencia 357 KHZ
Tipo VOR-DME Nombre Burgos Frecuencia 111400 KHZ
Información meteorológica del aeropuerto y NOTAM
ADDS - METARS form results

(0148 UTC 18 January 2021)
Data provider http://aviationweather.gov/metar/data/
 
METAR text: LEBG 180130Z AUTO 00000KT 4700 BR OVC005 02/02 Q1028
Conditions at: LEBG (BURGOS/VILLAFRIA, ES) observed 0130 UTC 18 January 2021
Temperature: 2.0°C (36°F)
Dewpoint: 2.0°C (36°F) [RH = 100%]
Pressure (altimeter): 30.35 inches Hg (1028.0 mb)
Winds: calm
Visibility: 2.92 miles (4.70 km)
Ceiling: 500 feet AGL
Clouds: overcast cloud deck at 500 feet AGL
Weather: BR  (mist)

METAR text: LEBG 180100Z AUTO VRB01KT 3000 BR OVC006 02/02 Q1029
Conditions at: LEBG (BURGOS/VILLAFRIA, ES) observed 0100 UTC 18 January 2021
Temperature: 2.0°C (36°F)
Dewpoint: 2.0°C (36°F) [RH = 100%]
Pressure (altimeter): 30.38 inches Hg (1029.0 mb)
Winds: variable direction winds at 1 MPH (1 knots; 0.5 m/s)
Visibility: 1.86 miles (2.99 km)
Ceiling: 600 feet AGL
Clouds: overcast cloud deck at 600 feet AGL
Weather: BR  (mist)